createdAt,value
2017-04-22T00:00:49.052Z,0
2017-04-22T00:01:49.577Z,0
2017-04-22T00:02:50.125Z,0
2017-04-22T00:03:50.634Z,0
2017-04-22T00:04:51.167Z,0
2017-04-22T00:05:51.708Z,0
2017-04-22T00:06:52.224Z,0
2017-04-22T00:07:52.764Z,0
2017-04-22T00:08:53.287Z,0
2017-04-22T00:09:53.814Z,0
2017-04-22T00:10:54.357Z,0
2017-04-22T00:11:54.876Z,0
2017-04-22T00:12:55.403Z,0
2017-04-22T00:13:55.928Z,0
2017-04-22T00:14:56.465Z,0
2017-04-22T00:15:56.989Z,0
2017-04-22T00:16:57.513Z,0
2017-04-22T00:17:58.064Z,0
2017-04-22T00:18:58.573Z,0
2017-04-22T00:19:59.108Z,0
2017-04-22T00:20:59.639Z,0
2017-04-22T00:22:00.168Z,0
2017-04-22T00:23:00.693Z,0
2017-04-22T00:24:01.221Z,0
2017-04-22T00:25:01.753Z,0
2017-04-22T00:26:02.300Z,0
2017-04-22T00:27:02.814Z,0
2017-04-22T00:28:03.350Z,0
2017-04-22T00:29:03.883Z,0
2017-04-22T00:30:04.409Z,0
2017-04-22T00:31:04.952Z,0
2017-04-22T00:32:05.470Z,0
2017-04-22T00:33:06.009Z,0
2017-04-22T00:34:06.529Z,0
2017-04-22T00:35:07.065Z,0
2017-04-22T00:36:07.597Z,0
2017-04-22T00:37:08.139Z,0
2017-04-22T00:38:08.656Z,0
2017-04-22T00:39:09.188Z,0
2017-04-22T00:40:09.714Z,0
2017-04-22T00:41:10.245Z,0
2017-04-22T00:42:10.775Z,0
2017-04-22T00:43:11.305Z,0
2017-04-22T00:44:11.832Z,0
2017-04-22T00:45:12.366Z,0
2017-04-22T00:46:13.040Z,0
2017-04-22T00:47:13.421Z,0
2017-04-22T00:48:13.954Z,0
2017-04-22T00:49:14.483Z,0
2017-04-22T00:50:15.008Z,0
2017-04-22T00:51:15.545Z,0
2017-04-22T00:52:16.069Z,0
2017-04-22T00:53:16.608Z,0
2017-04-22T00:54:17.129Z,0
2017-04-22T00:55:17.664Z,0
2017-04-22T00:56:18.197Z,0
2017-04-22T00:57:18.865Z,0
2017-04-22T00:58:19.282Z,0
2017-04-22T00:59:19.779Z,0
2017-04-22T01:00:20.457Z,0
2017-04-22T01:01:20.994Z,0
2017-04-22T01:02:21.524Z,0
2017-04-22T01:03:21.899Z,0
2017-04-22T01:04:22.428Z,0
2017-04-22T01:05:22.959Z,0
2017-04-22T01:06:23.631Z,0
2017-04-22T01:07:24.016Z,0
2017-04-22T01:08:24.547Z,0
2017-04-22T01:09:25.079Z,0
2017-04-22T01:10:25.626Z,0
2017-04-22T01:11:26.145Z,0
2017-04-22T01:12:26.674Z,0
2017-04-22T01:13:27.208Z,0
2017-04-22T01:14:27.735Z,0
2017-04-22T01:15:28.271Z,0
2017-04-22T01:16:28.794Z,0
2017-04-22T01:17:29.330Z,0
2017-04-22T01:18:29.855Z,0
2017-04-22T01:19:30.387Z,0
2017-04-22T01:20:31.061Z,0
2017-04-22T01:21:31.442Z,0
2017-04-22T01:22:31.969Z,0
2017-04-22T01:23:32.500Z,0
2017-04-22T01:24:33.030Z,0
2017-04-22T01:25:33.565Z,0
2017-04-22T01:26:34.090Z,0
2017-04-22T01:27:34.621Z,0
2017-04-22T01:28:35.153Z,0
2017-04-22T01:29:35.678Z,0
2017-04-22T01:30:36.204Z,0
2017-04-22T01:31:36.752Z,0
2017-04-22T01:32:37.417Z,0
2017-04-22T01:33:37.797Z,0
2017-04-22T01:34:38.325Z,0
2017-04-22T01:35:38.863Z,0
2017-04-22T01:36:39.388Z,0
2017-04-22T01:37:39.918Z,0
2017-04-22T01:38:40.463Z,0
2017-04-22T01:39:40.978Z,0
2017-04-22T01:40:41.660Z,0
2017-04-22T01:41:42.045Z,0
2017-04-22T01:42:42.570Z,0
2017-04-22T01:43:43.105Z,0
2017-04-22T01:44:43.634Z,0
2017-04-22T01:45:44.166Z,0
2017-04-22T01:46:44.694Z,0
2017-04-22T01:47:45.222Z,0
2017-04-22T01:48:45.781Z,0
2017-04-22T01:49:46.279Z,0
2017-04-22T01:50:46.965Z,0
2017-04-22T01:51:47.356Z,0
2017-04-22T01:52:47.881Z,0
2017-04-22T01:53:48.416Z,0
2017-04-22T01:54:48.955Z,0
2017-04-22T01:55:49.488Z,0
2017-04-22T01:56:50.005Z,0
2017-04-22T01:57:50.528Z,0
2017-04-22T01:58:51.208Z,0
2017-04-22T01:59:51.590Z,0
2017-04-22T02:00:52.265Z,0
2017-04-22T02:01:52.645Z,0
2017-04-22T02:02:53.173Z,0
2017-04-22T02:03:53.722Z,0
2017-04-22T02:04:54.241Z,0
2017-04-22T02:05:54.755Z,0
2017-04-22T02:06:55.285Z,0
2017-04-22T02:07:55.812Z,0
2017-04-22T02:08:56.350Z,0
2017-04-22T02:09:56.877Z,0
2017-04-22T02:10:57.408Z,0
2017-04-22T02:11:57.941Z,0
2017-04-22T02:12:58.483Z,0
2017-04-22T02:13:58.996Z,0
2017-04-22T02:14:59.525Z,0
2017-04-22T02:16:00.056Z,0
2017-04-22T02:17:00.579Z,0
2017-04-22T02:18:01.111Z,0
2017-04-22T02:19:01.787Z,0
2017-04-22T02:20:02.182Z,0
2017-04-22T02:21:02.694Z,0
2017-04-22T02:22:03.222Z,0
2017-04-22T02:23:03.903Z,0
2017-04-22T02:24:04.278Z,0
2017-04-22T02:25:04.956Z,0
2017-04-22T02:26:05.336Z,0
2017-04-22T02:27:05.869Z,0
2017-04-22T02:28:06.395Z,0
2017-04-22T02:29:06.927Z,0
2017-04-22T02:30:07.457Z,0
2017-04-22T02:31:08.142Z,0
2017-04-22T02:32:08.523Z,0
2017-04-22T02:33:09.210Z,0
2017-04-22T02:34:09.590Z,0
2017-04-22T02:35:10.125Z,0
2017-04-22T02:36:10.655Z,0
2017-04-22T02:37:11.332Z,0
2017-04-22T02:38:11.713Z,0
2017-04-22T02:39:12.241Z,0
2017-04-22T02:40:12.770Z,0
2017-04-22T02:41:13.297Z,0
2017-04-22T02:42:13.828Z,0
2017-04-22T02:43:14.354Z,0
2017-04-22T02:44:14.890Z,0
2017-04-22T02:45:15.414Z,0
2017-04-22T02:46:15.942Z,0
2017-04-22T02:47:16.476Z,0
2017-04-22T02:48:17.001Z,0
2017-04-22T02:49:17.528Z,0
2017-04-22T02:50:18.059Z,0
2017-04-22T02:51:18.735Z,0
2017-04-22T02:52:19.119Z,0
2017-04-22T02:53:19.644Z,0
2017-04-22T02:54:20.182Z,0
2017-04-22T02:55:23.705Z,0
2017-04-22T02:56:21.233Z,0
2017-04-22T02:57:21.779Z,0
2017-04-22T02:58:22.305Z,0
2017-04-22T02:59:22.842Z,0
2017-04-22T03:00:23.355Z,0
2017-04-22T03:01:23.881Z,0
2017-04-22T03:02:24.409Z,0
2017-04-22T03:03:24.936Z,0
2017-04-22T03:04:25.461Z,0
2017-04-22T03:05:25.992Z,0
2017-04-22T03:06:26.518Z,0
2017-04-22T03:07:27.048Z,0
2017-04-22T03:08:27.579Z,0
2017-04-22T03:09:28.108Z,0
2017-04-22T03:10:28.635Z,0
2017-04-22T03:11:29.168Z,0
2017-04-22T03:12:29.695Z,0
2017-04-22T03:13:30.230Z,0
2017-04-22T03:14:30.762Z,0
2017-04-22T03:15:31.444Z,0
2017-04-22T03:16:31.829Z,0
2017-04-22T03:17:32.361Z,0
2017-04-22T03:18:32.897Z,0
2017-04-22T03:19:33.567Z,0
2017-04-22T03:20:33.952Z,0
2017-04-22T03:21:34.479Z,0
2017-04-22T03:22:35.006Z,0
2017-04-22T03:23:35.686Z,0
2017-04-22T03:24:36.068Z,0
2017-04-22T03:25:36.597Z,0
2017-04-22T03:26:37.133Z,0
2017-04-22T03:27:37.656Z,0
2017-04-22T03:28:38.187Z,0
2017-04-22T03:29:38.749Z,0
2017-04-22T03:30:39.242Z,0
2017-04-22T03:31:39.919Z,0
2017-04-22T03:32:40.303Z,0
2017-04-22T03:33:40.979Z,0
2017-04-22T03:34:41.357Z,0
2017-04-22T03:35:41.894Z,0
2017-04-22T03:36:42.418Z,0
2017-04-22T03:37:42.941Z,0
2017-04-22T03:38:43.476Z,0
2017-04-22T03:39:44.016Z,0
2017-04-22T03:40:44.530Z,0
2017-04-22T03:41:45.208Z,0
2017-04-22T03:42:45.595Z,0
2017-04-22T03:43:46.115Z,0
2017-04-22T03:44:46.647Z,0
2017-04-22T03:45:47.176Z,0
2017-04-22T03:46:47.703Z,0
2017-04-22T03:47:48.240Z,0
2017-04-22T03:48:48.764Z,0
2017-04-22T03:49:49.300Z,0
2017-04-22T03:50:49.821Z,0
2017-04-22T03:51:50.364Z,0
2017-04-22T03:52:50.880Z,0
2017-04-22T03:53:51.407Z,0
2017-04-22T03:54:51.972Z,0
2017-04-22T03:55:52.467Z,0
2017-04-22T03:56:53.004Z,0
2017-04-22T03:57:53.532Z,0
2017-04-22T03:58:54.064Z,0
2017-04-22T03:59:54.606Z,0
2017-04-22T04:00:55.129Z,0
2017-04-22T04:01:55.659Z,0
2017-04-22T04:02:56.189Z,0
2017-04-22T04:03:56.869Z,0
2017-04-22T04:04:57.252Z,0
2017-04-22T04:05:57.780Z,0
2017-04-22T04:06:58.319Z,0
2017-04-22T04:07:58.842Z,0
2017-04-22T04:08:59.369Z,0
2017-04-22T04:09:59.899Z,0
2017-04-22T04:11:00.431Z,0
2017-04-22T04:12:00.990Z,0
2017-04-22T04:13:01.497Z,0
2017-04-22T04:14:02.018Z,0
2017-04-22T04:15:02.550Z,0
2017-04-22T04:16:03.075Z,0
2017-04-22T04:17:03.609Z,0
2017-04-22T04:18:04.149Z,0
2017-04-22T04:19:04.811Z,0
2017-04-22T04:20:05.196Z,0
2017-04-22T04:21:05.725Z,0
2017-04-22T04:22:06.254Z,0
2017-04-22T04:23:06.784Z,0
2017-04-22T04:24:07.467Z,0
2017-04-22T04:25:07.845Z,0
2017-04-22T04:26:08.372Z,0
2017-04-22T04:27:08.901Z,0
2017-04-22T04:28:09.427Z,0
2017-04-22T04:29:10.103Z,0
2017-04-22T04:30:10.485Z,0
2017-04-22T04:31:11.015Z,0
2017-04-22T04:32:11.543Z,0
2017-04-22T04:33:12.074Z,0
2017-04-22T04:34:12.604Z,0
2017-04-22T04:35:13.130Z,0
2017-04-22T04:36:13.656Z,0
2017-04-22T04:37:14.189Z,0
2017-04-22T04:38:14.725Z,0
2017-04-22T04:39:15.259Z,0
2017-04-22T04:40:15.793Z,0
2017-04-22T04:41:16.328Z,0
2017-04-22T04:42:16.855Z,0
2017-04-22T04:43:17.386Z,0
2017-04-22T04:44:18.061Z,0
2017-04-22T04:45:18.448Z,0
2017-04-22T04:46:19.121Z,0
2017-04-22T04:47:19.498Z,0
2017-04-22T04:48:20.031Z,14
2017-04-22T04:49:20.559Z,9
2017-04-22T04:50:21.088Z,8
2017-04-22T04:51:21.617Z,8
2017-04-22T04:52:22.152Z,8
2017-04-22T04:53:22.679Z,9
2017-04-22T04:54:23.231Z,9
2017-04-22T04:55:23.738Z,12
2017-04-22T04:56:24.279Z,10
2017-04-22T04:57:24.803Z,9
2017-04-22T04:58:25.348Z,7
2017-04-22T04:59:25.862Z,8
2017-04-22T05:00:26.416Z,8
2017-04-22T05:01:27.068Z,8
2017-04-22T05:02:27.454Z,7
2017-04-22T05:03:27.981Z,7
2017-04-22T05:04:28.514Z,8
2017-04-22T05:05:29.044Z,9
2017-04-22T05:06:29.585Z,9
2017-04-22T05:07:30.254Z,8
2017-04-22T05:08:30.643Z,8
2017-04-22T05:09:31.166Z,7
2017-04-22T05:10:31.691Z,5
2017-04-22T05:11:32.222Z,0
2017-04-22T05:12:32.746Z,0
2017-04-22T05:13:33.425Z,0
2017-04-22T05:14:33.815Z,0
2017-04-22T05:15:34.343Z,0
2017-04-22T05:16:34.876Z,0
2017-04-22T05:17:35.405Z,0
2017-04-22T05:18:36.082Z,0
2017-04-22T05:19:36.612Z,0
2017-04-22T05:20:37.005Z,18
2017-04-22T05:21:37.536Z,16
2017-04-22T05:22:38.065Z,17
2017-04-22T05:23:38.603Z,24
2017-04-22T05:24:39.127Z,30
2017-04-22T05:25:39.657Z,30
2017-04-22T05:26:40.182Z,29
2017-04-22T05:27:40.711Z,33
2017-04-22T05:28:41.277Z,42
2017-04-22T05:29:41.770Z,47
2017-04-22T05:30:42.324Z,44
2017-04-22T05:31:42.831Z,45
2017-04-22T05:32:43.364Z,55
2017-04-22T05:33:43.885Z,63
2017-04-22T05:34:44.430Z,71
2017-04-22T05:35:44.942Z,74
2017-04-22T05:36:45.474Z,72
2017-04-22T05:37:46.011Z,56
2017-04-22T05:38:46.534Z,37
2017-04-22T05:39:47.061Z,35
2017-04-22T05:40:47.588Z,47
2017-04-22T05:41:48.123Z,44
2017-04-22T05:42:48.671Z,49
2017-04-22T05:43:49.185Z,57
2017-04-22T05:44:49.721Z,63
2017-04-22T05:45:50.241Z,61
2017-04-22T05:46:50.769Z,53
2017-04-22T05:47:51.317Z,52
2017-04-22T05:48:51.829Z,56
2017-04-22T05:49:52.358Z,57
2017-04-22T05:50:52.891Z,50
2017-04-22T05:51:53.562Z,61
2017-04-22T05:52:53.946Z,51
2017-04-22T05:53:54.475Z,44
2017-04-22T05:54:55.008Z,55
2017-04-22T05:55:55.545Z,80
2017-04-22T05:56:56.065Z,90
2017-04-22T05:57:56.598Z,76
2017-04-22T05:58:57.137Z,77
2017-04-22T05:59:57.659Z,82
2017-04-22T06:00:58.192Z,80
2017-04-22T06:01:58.722Z,82
2017-04-22T06:02:59.254Z,83
2017-04-22T06:03:59.931Z,71
2017-04-22T06:05:00.319Z,56
2017-04-22T06:06:00.845Z,56
2017-04-22T06:07:01.388Z,66
2017-04-22T06:08:01.914Z,73
2017-04-22T06:09:02.438Z,76
2017-04-22T06:10:02.966Z,76
2017-04-22T06:11:03.647Z,71
2017-04-22T06:12:04.043Z,70
2017-04-22T06:13:04.562Z,77
2017-04-22T06:14:05.083Z,76
2017-04-22T06:15:05.763Z,67
2017-04-22T06:16:06.144Z,56
2017-04-22T06:17:06.670Z,54
2017-04-22T06:18:07.200Z,61
2017-04-22T06:19:07.729Z,56
2017-04-22T06:20:08.260Z,52
2017-04-22T06:21:08.791Z,50
2017-04-22T06:22:10.968Z,48
2017-04-22T06:23:09.845Z,44
2017-04-22T06:24:10.382Z,45
2017-04-22T06:25:10.907Z,53
2017-04-22T06:26:11.442Z,66
2017-04-22T06:27:11.969Z,80
2017-04-22T06:28:12.500Z,96
2017-04-22T06:29:13.028Z,102
2017-04-22T06:30:13.556Z,104
2017-04-22T06:31:14.233Z,108
2017-04-22T06:32:14.611Z,117
2017-04-22T06:33:15.150Z,118
2017-04-22T06:34:15.690Z,116
2017-04-22T06:35:16.199Z,123
2017-04-22T06:36:16.731Z,125
2017-04-22T06:37:17.256Z,125
2017-04-22T06:38:17.793Z,112
2017-04-22T06:39:18.319Z,104
2017-04-22T06:40:18.845Z,118
2017-04-22T06:41:19.411Z,123
2017-04-22T06:42:19.909Z,131
2017-04-22T06:43:20.589Z,167
2017-04-22T06:44:20.979Z,208
2017-04-22T06:45:21.658Z,265
2017-04-22T06:46:22.045Z,285
2017-04-22T06:47:22.724Z,242
2017-04-22T06:48:23.255Z,413
2017-04-22T06:49:23.648Z,346
2017-04-22T06:50:24.167Z,146
2017-04-22T06:51:24.705Z,119
2017-04-22T06:52:25.369Z,153
2017-04-22T06:53:25.748Z,146
2017-04-22T06:54:26.277Z,124
2017-04-22T06:55:26.806Z,106
2017-04-22T06:56:27.337Z,95
2017-04-22T06:57:27.869Z,93
2017-04-22T06:58:28.398Z,94
2017-04-22T06:59:28.922Z,91
2017-04-22T07:00:29.450Z,90
2017-04-22T07:01:30.130Z,95
2017-04-22T07:02:30.514Z,88
2017-04-22T07:03:31.191Z,84
2017-04-22T07:04:31.569Z,88
2017-04-22T07:05:32.103Z,95
2017-04-22T07:06:32.634Z,99
2017-04-22T07:07:33.311Z,97
2017-04-22T07:08:33.688Z,92
2017-04-22T07:09:34.241Z,86
2017-04-22T07:10:34.748Z,95
2017-04-22T07:11:35.278Z,121
2017-04-22T07:12:35.811Z,159
2017-04-22T07:13:36.337Z,224
2017-04-22T07:14:36.865Z,291
2017-04-22T07:15:37.391Z,337
2017-04-22T07:16:37.921Z,347
2017-04-22T07:17:38.447Z,327
2017-04-22T07:18:38.979Z,307
2017-04-22T07:19:39.513Z,439
2017-04-22T07:20:40.040Z,311
2017-04-22T07:21:40.573Z,290
2017-04-22T07:22:41.105Z,298
2017-04-22T07:23:41.781Z,246
2017-04-22T07:24:42.163Z,222
2017-04-22T07:25:42.845Z,215
2017-04-22T07:26:43.231Z,231
2017-04-22T07:27:43.765Z,249
2017-04-22T07:28:44.295Z,249
2017-04-22T07:29:44.831Z,241
2017-04-22T07:30:45.362Z,248
2017-04-22T07:31:45.890Z,238
2017-04-22T07:32:46.418Z,241
2017-04-22T07:33:46.948Z,252
2017-04-22T07:34:47.480Z,277
2017-04-22T07:35:48.009Z,302
2017-04-22T07:36:48.540Z,314
2017-04-22T07:37:49.074Z,359
2017-04-22T07:38:49.601Z,372
2017-04-22T07:39:50.278Z,531
2017-04-22T07:40:50.660Z,412
2017-04-22T07:41:51.186Z,344
2017-04-22T07:42:51.714Z,338
2017-04-22T07:43:52.248Z,334
2017-04-22T07:44:52.782Z,326
2017-04-22T07:45:53.451Z,319
2017-04-22T07:46:53.834Z,322
2017-04-22T07:47:54.361Z,463
2017-04-22T07:48:54.891Z,365
2017-04-22T07:49:55.419Z,591
2017-04-22T07:50:55.950Z,392
2017-04-22T07:51:56.487Z,908
2017-04-22T07:52:57.010Z,384
2017-04-22T07:53:57.537Z,856
2017-04-22T07:54:58.073Z,892
2017-04-22T07:55:58.744Z,868
2017-04-22T07:56:59.149Z,508
2017-04-22T07:57:59.652Z,628
2017-04-22T07:59:00.187Z,901
2017-04-22T08:00:00.709Z,246
2017-04-22T08:01:01.240Z,225
2017-04-22T08:02:01.768Z,212
2017-04-22T08:03:02.302Z,225
2017-04-22T08:04:02.841Z,253
2017-04-22T08:05:03.360Z,335
2017-04-22T08:06:04.042Z,370
2017-04-22T08:07:04.424Z,445
2017-04-22T08:08:04.953Z,1158
2017-04-22T08:09:05.488Z,1062
2017-04-22T08:10:06.038Z,407
2017-04-22T08:11:06.556Z,538
2017-04-22T08:12:07.235Z,389
2017-04-22T08:13:07.612Z,375
2017-04-22T08:14:08.142Z,331
2017-04-22T08:15:08.672Z,386
2017-04-22T08:16:09.204Z,272
2017-04-22T08:17:09.741Z,270
2017-04-22T08:18:10.269Z,283
2017-04-22T08:19:10.802Z,290
2017-04-22T08:20:11.344Z,242
2017-04-22T08:21:12.007Z,198
2017-04-22T08:22:12.539Z,181
2017-04-22T08:23:12.919Z,192
2017-04-22T08:24:13.449Z,211
2017-04-22T08:25:13.976Z,232
2017-04-22T08:26:14.508Z,251
2017-04-22T08:27:15.040Z,277
2017-04-22T08:28:15.570Z,305
2017-04-22T08:29:16.111Z,361
2017-04-22T08:30:16.636Z,444
2017-04-22T08:31:17.163Z,771
2017-04-22T08:32:17.692Z,516
2017-04-22T08:33:18.223Z,854
2017-04-22T08:34:18.751Z,359
2017-04-22T08:35:19.282Z,545
2017-04-22T08:36:19.832Z,372
2017-04-22T08:37:20.343Z,316
2017-04-22T08:38:21.021Z,544
2017-04-22T08:39:21.408Z,865
2017-04-22T08:40:22.081Z,1114
2017-04-22T08:41:22.466Z,529
2017-04-22T08:42:23.000Z,1214
2017-04-22T08:43:23.672Z,1219
2017-04-22T08:44:24.049Z,1187
2017-04-22T08:45:24.578Z,810
2017-04-22T08:46:25.104Z,618
2017-04-22T08:47:25.632Z,347
2017-04-22T08:48:26.167Z,296
2017-04-22T08:49:26.700Z,264
2017-04-22T08:50:27.230Z,262
2017-04-22T08:51:27.767Z,278
2017-04-22T08:52:28.294Z,280
2017-04-22T08:53:28.827Z,254
2017-04-22T08:54:29.359Z,219
2017-04-22T08:55:29.895Z,202
2017-04-22T08:56:30.418Z,199
2017-04-22T08:57:30.956Z,201
2017-04-22T08:58:31.631Z,208
2017-04-22T08:59:32.012Z,223
2017-04-22T09:00:32.691Z,248
2017-04-22T09:01:33.069Z,281
2017-04-22T09:02:33.749Z,324
2017-04-22T09:03:34.128Z,390
2017-04-22T09:04:34.656Z,1226
2017-04-22T09:05:35.192Z,1271
2017-04-22T09:06:35.717Z,822
2017-04-22T09:07:36.399Z,633
2017-04-22T09:08:36.782Z,1037
2017-04-22T09:09:37.310Z,506
2017-04-22T09:10:37.991Z,591
2017-04-22T09:11:38.373Z,557
2017-04-22T09:12:38.929Z,474
2017-04-22T09:13:39.437Z,374
2017-04-22T09:14:39.969Z,362
2017-04-22T09:15:40.510Z,340
2017-04-22T09:16:41.023Z,316
2017-04-22T09:17:41.579Z,305
2017-04-22T09:18:42.081Z,308
2017-04-22T09:19:42.764Z,326
2017-04-22T09:20:43.297Z,354
2017-04-22T09:21:43.674Z,375
2017-04-22T09:22:44.243Z,382
2017-04-22T09:23:44.739Z,376
2017-04-22T09:24:45.420Z,368
2017-04-22T09:25:45.945Z,347
2017-04-22T09:26:46.323Z,322
2017-04-22T09:27:46.857Z,307
2017-04-22T09:28:47.540Z,306
2017-04-22T09:29:47.918Z,321
2017-04-22T09:30:48.453Z,351
2017-04-22T09:31:48.982Z,390
2017-04-22T09:32:49.515Z,427
2017-04-22T09:33:50.052Z,632
2017-04-22T09:34:50.581Z,499
2017-04-22T09:35:51.116Z,520
2017-04-22T09:36:51.645Z,574
2017-04-22T09:37:52.174Z,504
2017-04-22T09:38:52.703Z,501
2017-04-22T09:39:53.232Z,489
2017-04-22T09:40:53.757Z,553
2017-04-22T09:41:54.294Z,409
2017-04-22T09:42:54.818Z,357
2017-04-22T09:43:55.347Z,328
2017-04-22T09:44:55.877Z,312
2017-04-22T09:45:56.557Z,310
2017-04-22T09:46:56.951Z,318
2017-04-22T09:47:57.612Z,329
2017-04-22T09:48:58.013Z,347
2017-04-22T09:49:58.525Z,382
2017-04-22T09:50:59.065Z,457
2017-04-22T09:51:59.734Z,751
2017-04-22T09:53:00.117Z,814
2017-04-22T09:54:00.646Z,885
2017-04-22T09:55:01.176Z,783
2017-04-22T09:56:01.707Z,598
2017-04-22T09:57:02.240Z,713
2017-04-22T09:58:02.761Z,518
2017-04-22T09:59:03.289Z,467
2017-04-22T10:01:04.351Z,661
2017-04-22T10:02:05.027Z,754
2017-04-22T10:03:05.408Z,537
2017-04-22T10:04:05.942Z,427
2017-04-22T10:05:06.463Z,368
2017-04-22T10:06:06.993Z,366
2017-04-22T10:07:07.671Z,377
2017-04-22T10:08:08.050Z,380
2017-04-22T10:09:08.594Z,399
2017-04-22T10:10:09.117Z,428
2017-04-22T10:11:09.647Z,470
2017-04-22T10:12:10.182Z,514
2017-04-22T10:13:10.706Z,562
2017-04-22T10:14:11.248Z,599
2017-04-22T10:15:11.773Z,573
2017-04-22T10:16:12.314Z,707
2017-04-22T10:17:12.848Z,437
2017-04-22T10:18:13.377Z,387
2017-04-22T10:19:13.909Z,349
2017-04-22T10:20:14.438Z,317
2017-04-22T10:21:14.963Z,295
2017-04-22T10:22:15.491Z,271
2017-04-22T10:23:16.168Z,262
2017-04-22T10:24:16.547Z,276
2017-04-22T10:25:17.076Z,312
2017-04-22T10:26:17.604Z,352
2017-04-22T10:27:18.136Z,389
2017-04-22T10:28:18.664Z,425
2017-04-22T10:29:19.193Z,579
2017-04-22T10:30:19.718Z,970
2017-04-22T10:31:20.248Z,1274
2017-04-22T10:32:20.781Z,548
2017-04-22T10:33:21.323Z,507
2017-04-22T10:34:21.840Z,559
2017-04-22T10:35:22.371Z,1274
2017-04-22T10:36:22.902Z,518
2017-04-22T10:37:23.445Z,426
2017-04-22T10:38:23.967Z,1286
2017-04-22T10:39:24.489Z,1392
2017-04-22T10:40:25.028Z,451
2017-04-22T10:41:25.559Z,472
2017-04-22T10:42:26.081Z,675
2017-04-22T10:44:27.146Z,478
2017-04-22T10:45:27.669Z,458
2017-04-22T10:46:28.199Z,458
2017-04-22T10:47:28.726Z,536
2017-04-22T10:48:29.258Z,471
2017-04-22T10:49:29.792Z,490
2017-04-22T10:50:30.317Z,493
2017-04-22T10:51:30.988Z,513
2017-04-22T10:52:31.375Z,425
2017-04-22T10:53:31.903Z,456
2017-04-22T10:54:32.432Z,550
2017-04-22T10:55:33.111Z,579
2017-04-22T10:56:33.495Z,1217
2017-04-22T10:57:34.040Z,610
2017-04-22T10:58:34.572Z,872
2017-04-22T10:59:35.247Z,556
2017-04-22T11:00:35.633Z,552
2017-04-22T11:01:36.310Z,469
2017-04-22T11:02:36.690Z,398
2017-04-22T11:03:37.365Z,332
2017-04-22T11:04:37.747Z,294
2017-04-22T11:05:38.271Z,276
2017-04-22T11:06:38.809Z,260
2017-04-22T11:07:39.485Z,255
2017-04-22T11:08:39.870Z,289
2017-04-22T11:09:40.393Z,360
2017-04-22T11:10:40.921Z,416
2017-04-22T11:11:41.450Z,374
2017-04-22T11:12:41.976Z,303
2017-04-22T11:13:42.507Z,239
2017-04-22T11:14:43.038Z,227
2017-04-22T11:15:43.718Z,268
2017-04-22T11:16:44.100Z,321
2017-04-22T11:17:44.627Z,338
2017-04-22T11:18:45.155Z,323
2017-04-22T11:19:45.835Z,318
2017-04-22T11:20:46.220Z,332
2017-04-22T11:21:46.752Z,357
2017-04-22T11:22:47.277Z,388
2017-04-22T11:23:47.820Z,405
2017-04-22T11:24:48.336Z,401
2017-04-22T11:25:49.014Z,393
2017-04-22T11:26:49.393Z,361
2017-04-22T11:27:49.931Z,384
2017-04-22T11:28:50.450Z,402
2017-04-22T11:29:50.975Z,427
2017-04-22T11:30:51.509Z,438
2017-04-22T11:31:52.031Z,436
2017-04-22T11:32:52.564Z,412
2017-04-22T11:33:53.094Z,419
2017-04-22T11:34:53.625Z,451
2017-04-22T11:35:54.188Z,558
2017-04-22T11:36:54.683Z,475
2017-04-22T11:37:55.219Z,1479
2017-04-22T11:38:55.753Z,1420
2017-04-22T11:39:56.286Z,1388
2017-04-22T11:40:56.814Z,1453
2017-04-22T11:41:57.354Z,1469
2017-04-22T11:42:57.876Z,1344
2017-04-22T11:43:58.430Z,816
2017-04-22T11:44:58.935Z,706
2017-04-22T11:45:59.608Z,707
2017-04-22T11:47:00.136Z,659
2017-04-22T11:48:00.516Z,649
2017-04-22T11:49:01.052Z,649
2017-04-22T11:50:01.736Z,613
2017-04-22T11:51:02.113Z,584
2017-04-22T11:52:02.640Z,894
2017-04-22T11:53:03.171Z,558
2017-04-22T11:54:03.848Z,513
2017-04-22T11:55:04.226Z,467
2017-04-22T11:56:04.755Z,416
2017-04-22T11:57:05.292Z,364
2017-04-22T11:58:05.820Z,320
2017-04-22T11:59:06.347Z,294
2017-04-22T12:00:06.875Z,277
2017-04-22T12:01:07.403Z,260
2017-04-22T12:02:08.087Z,258
2017-04-22T12:03:08.467Z,263
2017-04-22T12:04:08.995Z,263
2017-04-22T12:05:09.671Z,249
2017-04-22T12:06:10.053Z,234
2017-04-22T12:07:10.581Z,212
2017-04-22T12:08:11.119Z,173
2017-04-22T12:09:11.651Z,152
2017-04-22T12:10:12.171Z,140
2017-04-22T12:11:12.842Z,124
2017-04-22T12:12:13.230Z,113
2017-04-22T12:13:13.759Z,95
2017-04-22T12:14:14.298Z,75
2017-04-22T12:15:14.819Z,68
2017-04-22T12:16:15.351Z,66
2017-04-22T12:17:15.882Z,61
2017-04-22T12:18:16.410Z,53
2017-04-22T12:19:16.944Z,53
2017-04-22T12:20:17.471Z,53
2017-04-22T12:21:18.007Z,63
2017-04-22T12:22:18.572Z,72
2017-04-22T12:23:19.075Z,79
2017-04-22T12:24:19.653Z,93
2017-04-22T12:25:20.137Z,107
2017-04-22T12:26:20.658Z,105
2017-04-22T12:27:21.336Z,91
2017-04-22T12:28:21.718Z,76
2017-04-22T12:29:22.245Z,62
2017-04-22T12:30:22.780Z,56
2017-04-22T12:31:23.308Z,56
2017-04-22T12:32:23.836Z,51
2017-04-22T12:33:24.365Z,54
2017-04-22T12:34:24.928Z,55
2017-04-22T12:35:25.426Z,70
2017-04-22T12:36:25.960Z,105
2017-04-22T12:37:26.484Z,155
2017-04-22T12:38:27.162Z,191
2017-04-22T12:39:27.545Z,197
2017-04-22T12:40:28.073Z,181
2017-04-22T12:41:28.752Z,173
2017-04-22T12:42:29.131Z,200
2017-04-22T12:43:29.665Z,256
2017-04-22T12:44:30.342Z,309
2017-04-22T12:45:30.726Z,335
2017-04-22T12:46:31.271Z,355
2017-04-22T12:47:31.781Z,375
2017-04-22T12:48:32.313Z,420
2017-04-22T12:49:32.839Z,500
2017-04-22T12:50:33.368Z,512
2017-04-22T12:51:33.901Z,529
2017-04-22T12:52:34.462Z,506
2017-04-22T12:53:34.962Z,478
2017-04-22T12:54:35.636Z,433
2017-04-22T12:55:36.021Z,408
2017-04-22T12:56:36.550Z,362
2017-04-22T12:57:37.085Z,352
2017-04-22T12:58:37.615Z,351
2017-04-22T12:59:38.143Z,356
2017-04-22T13:00:38.823Z,336
2017-04-22T13:01:39.203Z,365
2017-04-22T13:02:39.735Z,484
2017-04-22T13:03:40.272Z,618
2017-04-22T13:04:40.798Z,533
2017-04-22T13:05:41.330Z,659
2017-04-22T13:06:41.859Z,927
2017-04-22T13:07:42.536Z,721
2017-04-22T13:08:42.919Z,470
2017-04-22T13:09:43.460Z,394
2017-04-22T13:10:44.128Z,382
2017-04-22T13:11:44.510Z,410
2017-04-22T13:12:45.042Z,462
2017-04-22T13:13:45.569Z,529
2017-04-22T13:14:46.103Z,591
2017-04-22T13:15:46.632Z,754
2017-04-22T13:16:47.157Z,1355
2017-04-22T13:17:47.685Z,1309
2017-04-22T13:18:48.217Z,535
2017-04-22T13:19:48.744Z,470
2017-04-22T13:20:49.424Z,953
2017-04-22T13:21:49.804Z,1204
2017-04-22T13:22:50.329Z,749
2017-04-22T13:23:50.867Z,548
2017-04-22T13:24:51.393Z,411
2017-04-22T13:25:52.072Z,389
2017-04-22T13:26:52.463Z,357
2017-04-22T13:27:52.982Z,347
2017-04-22T13:28:53.513Z,367
2017-04-22T13:29:54.041Z,396
2017-04-22T13:30:54.566Z,406
2017-04-22T13:31:55.100Z,415
2017-04-22T13:32:55.783Z,432
2017-04-22T13:33:56.165Z,452
2017-04-22T13:34:56.687Z,474
2017-04-22T13:35:57.217Z,471
2017-04-22T13:36:57.747Z,450
2017-04-22T13:37:58.286Z,442
2017-04-22T13:38:58.824Z,465
2017-04-22T13:39:59.491Z,671
2017-04-22T13:40:59.889Z,568
2017-04-22T13:42:00.405Z,552
2017-04-22T13:43:00.939Z,948
2017-04-22T13:44:01.468Z,527
2017-04-22T13:45:02.038Z,414
2017-04-22T13:46:02.541Z,414
2017-04-22T13:47:03.219Z,427
2017-04-22T13:48:03.599Z,420
2017-04-22T13:49:04.129Z,412
2017-04-22T13:50:04.659Z,399
2017-04-22T13:51:05.209Z,394
2017-04-22T13:52:05.720Z,390
2017-04-22T13:53:06.400Z,396
2017-04-22T13:54:06.779Z,417
2017-04-22T13:55:07.309Z,395
2017-04-22T13:56:07.835Z,374
2017-04-22T13:57:08.396Z,359
2017-04-22T13:58:08.896Z,343
2017-04-22T13:59:09.435Z,325
2017-04-22T14:00:09.953Z,309
2017-04-22T14:01:10.481Z,288
2017-04-22T14:02:11.010Z,279
2017-04-22T14:03:11.560Z,273
2017-04-22T14:04:12.072Z,258
2017-04-22T14:05:12.600Z,229
2017-04-22T14:06:13.129Z,202
2017-04-22T14:07:13.666Z,116
2017-04-22T14:08:14.218Z,180
2017-04-22T14:09:14.717Z,176
2017-04-22T14:10:15.254Z,173
2017-04-22T14:11:15.789Z,167
2017-04-22T14:12:16.307Z,160
2017-04-22T14:13:16.840Z,153
2017-04-22T14:14:17.370Z,145
2017-04-22T14:15:17.898Z,144
2017-04-22T14:16:18.425Z,171
2017-04-22T14:17:18.974Z,240
2017-04-22T14:18:19.486Z,348
2017-04-22T14:19:20.163Z,898
2017-04-22T14:20:20.540Z,1033